sensor_id;sensor_type;location;lat;lon;timestamp;P1;durP1;ratioP1;P2;durP2;ratioP2
38182;SDS011;23991;52.430;10.586;2023-12-29T00:01:54;6.05;;;2.17;;
38182;SDS011;23991;52.430;10.586;2023-12-29T00:04:20;3.38;;;1.80;;
38182;SDS011;23991;52.430;10.586;2023-12-29T00:06:46;6.63;;;1.73;;
38182;SDS011;23991;52.430;10.586;2023-12-29T00:09:11;4.38;;;1.40;;
38182;SDS011;23991;52.430;10.586;2023-12-29T00:11:37;6.50;;;1.85;;
38182;SDS011;23991;52.430;10.586;2023-12-29T00:14:03;5.03;;;1.77;;
38182;SDS011;23991;52.430;10.586;2023-12-29T00:16:29;3.40;;;1.58;;
38182;SDS011;23991;52.430;10.586;2023-12-29T00:18:54;5.47;;;1.50;;
38182;SDS011;23991;52.430;10.586;2023-12-29T00:21:20;5.25;;;1.80;;
38182;SDS011;23991;52.430;10.586;2023-12-29T00:23:46;4.00;;;1.80;;
38182;SDS011;23991;52.430;10.586;2023-12-29T00:26:15;3.90;;;1.50;;
38182;SDS011;23991;52.430;10.586;2023-12-29T00:28:41;6.03;;;2.22;;
38182;SDS011;23991;52.430;10.586;2023-12-29T00:31:07;5.70;;;1.60;;
38182;SDS011;23991;52.430;10.586;2023-12-29T00:33:34;4.65;;;1.50;;
38182;SDS011;23991;52.430;10.586;2023-12-29T00:36:00;3.00;;;1.38;;
38182;SDS011;23991;52.430;10.586;2023-12-29T00:38:26;4.30;;;1.65;;
38182;SDS011;23991;52.430;10.586;2023-12-29T00:40:53;8.77;;;1.80;;
38182;SDS011;23991;52.430;10.586;2023-12-29T00:43:19;6.20;;;2.03;;
38182;SDS011;23991;52.430;10.586;2023-12-29T00:45:45;4.35;;;1.75;;
38182;SDS011;23991;52.430;10.586;2023-12-29T00:48:10;3.25;;;1.42;;
38182;SDS011;23991;52.430;10.586;2023-12-29T00:50:36;4.05;;;1.50;;
38182;SDS011;23991;52.430;10.586;2023-12-29T00:53:01;4.95;;;1.55;;
38182;SDS011;23991;52.430;10.586;2023-12-29T00:55:27;4.43;;;1.50;;
38182;SDS011;23991;52.430;10.586;2023-12-29T00:57:53;4.53;;;1.45;;
38182;SDS011;23991;52.430;10.586;2023-12-29T01:00:19;4.07;;;1.60;;
38182;SDS011;23991;52.430;10.586;2023-12-29T01:02:45;3.30;;;1.58;;
38182;SDS011;23991;52.430;10.586;2023-12-29T01:05:14;5.03;;;1.73;;
38182;SDS011;23991;52.430;10.586;2023-12-29T01:07:41;3.13;;;1.80;;
38182;SDS011;23991;52.430;10.586;2023-12-29T01:10:07;4.03;;;1.45;;
38182;SDS011;23991;52.430;10.586;2023-12-29T01:12:33;4.20;;;1.77;;
38182;SDS011;23991;52.430;10.586;2023-12-29T01:14:58;2.83;;;1.50;;
38182;SDS011;23991;52.430;10.586;2023-12-29T01:17:24;5.90;;;1.85;;
38182;SDS011;23991;52.430;10.586;2023-12-29T01:19:52;3.75;;;1.60;;
38182;SDS011;23991;52.430;10.586;2023-12-29T01:22:18;5.63;;;1.42;;
38182;SDS011;23991;52.430;10.586;2023-12-29T01:24:44;8.25;;;1.60;;
38182;SDS011;23991;52.430;10.586;2023-12-29T01:27:10;3.95;;;2.50;;
38182;SDS011;23991;52.430;10.586;2023-12-29T01:29:38;5.57;;;1.83;;
38182;SDS011;23991;52.430;10.586;2023-12-29T01:32:04;6.45;;;2.10;;
38182;SDS011;23991;52.430;10.586;2023-12-29T01:34:32;5.28;;;1.55;;
38182;SDS011;23991;52.430;10.586;2023-12-29T01:36:59;3.60;;;1.45;;
38182;SDS011;23991;52.430;10.586;2023-12-29T01:39:25;5.20;;;1.60;;
38182;SDS011;23991;52.430;10.586;2023-12-29T01:41:50;5.85;;;2.15;;
38182;SDS011;23991;52.430;10.586;2023-12-29T01:44:21;3.63;;;1.80;;
38182;SDS011;23991;52.430;10.586;2023-12-29T01:46:50;6.85;;;1.83;;
38182;SDS011;23991;52.430;10.586;2023-12-29T01:49:18;4.30;;;1.88;;
38182;SDS011;23991;52.430;10.586;2023-12-29T01:51:47;4.95;;;1.88;;
38182;SDS011;23991;52.430;10.586;2023-12-29T01:54:14;7.28;;;1.95;;
38182;SDS011;23991;52.430;10.586;2023-12-29T01:56:44;5.82;;;1.70;;
38182;SDS011;23991;52.430;10.586;2023-12-29T01:59:10;4.10;;;1.75;;
38182;SDS011;23991;52.430;10.586;2023-12-29T02:01:37;5.13;;;1.70;;
38182;SDS011;23991;52.430;10.586;2023-12-29T02:04:04;3.58;;;1.80;;
38182;SDS011;23991;52.430;10.586;2023-12-29T02:06:31;7.15;;;1.70;;
38182;SDS011;23991;52.430;10.586;2023-12-29T02:08:59;3.13;;;1.52;;
38182;SDS011;23991;52.430;10.586;2023-12-29T02:11:26;3.47;;;1.65;;
38182;SDS011;23991;52.430;10.586;2023-12-29T02:13:51;7.95;;;2.38;;
38182;SDS011;23991;52.430;10.586;2023-12-29T02:16:22;6.85;;;1.90;;
38182;SDS011;23991;52.430;10.586;2023-12-29T02:22:07;4.97;;;2.00;;
38182;SDS011;23991;52.430;10.586;2023-12-29T02:24:34;4.72;;;1.67;;
38182;SDS011;23991;52.430;10.586;2023-12-29T02:27:06;5.82;;;1.80;;
38182;SDS011;23991;52.430;10.586;2023-12-29T02:32:26;4.32;;;1.60;;
38182;SDS011;23991;52.430;10.586;2023-12-29T02:34:54;4.20;;;1.75;;
38182;SDS011;23991;52.430;10.586;2023-12-29T02:37:21;4.65;;;1.75;;
38182;SDS011;23991;52.430;10.586;2023-12-29T02:39:48;6.30;;;1.73;;
38182;SDS011;23991;52.430;10.586;2023-12-29T02:42:17;4.13;;;1.40;;
38182;SDS011;23991;52.430;10.586;2023-12-29T02:44:42;4.15;;;2.17;;
38182;SDS011;23991;52.430;10.586;2023-12-29T02:47:08;4.40;;;1.45;;
38182;SDS011;23991;52.430;10.586;2023-12-29T02:49:34;3.83;;;1.80;;
38182;SDS011;23991;52.430;10.586;2023-12-29T02:51:59;3.78;;;1.45;;
38182;SDS011;23991;52.430;10.586;2023-12-29T02:54:25;3.97;;;1.50;;
38182;SDS011;23991;52.430;10.586;2023-12-29T02:56:51;5.13;;;1.50;;
38182;SDS011;23991;52.430;10.586;2023-12-29T02:59:16;7.40;;;1.60;;
38182;SDS011;23991;52.430;10.586;2023-12-29T03:01:42;3.95;;;2.35;;
38182;SDS011;23991;52.430;10.586;2023-12-29T03:04:07;3.97;;;1.27;;
38182;SDS011;23991;52.430;10.586;2023-12-29T03:06:33;5.32;;;2.78;;
38182;SDS011;23991;52.430;10.586;2023-12-29T03:08:59;5.45;;;1.40;;
38182;SDS011;23991;52.430;10.586;2023-12-29T03:11:24;3.53;;;1.73;;
38182;SDS011;23991;52.430;10.586;2023-12-29T03:13:50;5.22;;;1.50;;
38182;SDS011;23991;52.430;10.586;2023-12-29T03:16:15;6.40;;;1.48;;
38182;SDS011;23991;52.430;10.586;2023-12-29T03:18:41;4.07;;;2.15;;
38182;SDS011;23991;52.430;10.586;2023-12-29T03:21:07;4.47;;;1.38;;
38182;SDS011;23991;52.430;10.586;2023-12-29T03:23:33;3.13;;;1.60;;
38182;SDS011;23991;52.430;10.586;2023-12-29T03:25:59;3.80;;;1.60;;
38182;SDS011;23991;52.430;10.586;2023-12-29T03:28:25;6.10;;;1.50;;
38182;SDS011;23991;52.430;10.586;2023-12-29T03:30:50;5.78;;;1.75;;
38182;SDS011;23991;52.430;10.586;2023-12-29T03:33:16;2.25;;;1.63;;
38182;SDS011;23991;52.430;10.586;2023-12-29T03:35:41;3.50;;;1.48;;
38182;SDS011;23991;52.430;10.586;2023-12-29T03:38:07;4.13;;;1.65;;
38182;SDS011;23991;52.430;10.586;2023-12-29T03:40:33;3.42;;;1.55;;
38182;SDS011;23991;52.430;10.586;2023-12-29T03:42:58;4.25;;;1.48;;
38182;SDS011;23991;52.430;10.586;2023-12-29T03:45:24;4.18;;;1.50;;
38182;SDS011;23991;52.430;10.586;2023-12-29T03:47:49;2.30;;;1.52;;
38182;SDS011;23991;52.430;10.586;2023-12-29T03:50:15;4.35;;;1.40;;
38182;SDS011;23991;52.430;10.586;2023-12-29T03:52:41;4.28;;;1.30;;
38182;SDS011;23991;52.430;10.586;2023-12-29T03:55:06;3.97;;;1.55;;
38182;SDS011;23991;52.430;10.586;2023-12-29T03:57:32;3.50;;;1.60;;
38182;SDS011;23991;52.430;10.586;2023-12-29T03:59:58;5.10;;;1.63;;
38182;SDS011;23991;52.430;10.586;2023-12-29T04:02:24;3.80;;;1.23;;
38182;SDS011;23991;52.430;10.586;2023-12-29T04:04:49;3.05;;;1.20;;
38182;SDS011;23991;52.430;10.586;2023-12-29T04:07:15;5.10;;;1.20;;
38182;SDS011;23991;52.430;10.586;2023-12-29T04:09:41;4.43;;;1.33;;
38182;SDS011;23991;52.430;10.586;2023-12-29T04:12:07;4.03;;;1.20;;
38182;SDS011;23991;52.430;10.586;2023-12-29T04:14:32;3.47;;;1.23;;
38182;SDS011;23991;52.430;10.586;2023-12-29T04:16:58;2.28;;;1.25;;
38182;SDS011;23991;52.430;10.586;2023-12-29T04:19:25;3.78;;;1.30;;
38182;SDS011;23991;52.430;10.586;2023-12-29T04:21:50;2.22;;;1.10;;
38182;SDS011;23991;52.430;10.586;2023-12-29T04:24:17;4.80;;;1.23;;
38182;SDS011;23991;52.430;10.586;2023-12-29T04:26:42;2.40;;;1.20;;
38182;SDS011;23991;52.430;10.586;2023-12-29T04:29:08;4.20;;;1.33;;
38182;SDS011;23991;52.430;10.586;2023-12-29T04:31:34;3.42;;;1.10;;
38182;SDS011;23991;52.430;10.586;2023-12-29T04:34:00;4.18;;;1.50;;
38182;SDS011;23991;52.430;10.586;2023-12-29T04:36:25;4.25;;;1.30;;
38182;SDS011;23991;52.430;10.586;2023-12-29T04:38:51;4.35;;;1.40;;
38182;SDS011;23991;52.430;10.586;2023-12-29T04:41:17;2.83;;;1.10;;
38182;SDS011;23991;52.430;10.586;2023-12-29T04:43:42;4.03;;;1.88;;
38182;SDS011;23991;52.430;10.586;2023-12-29T04:46:08;3.83;;;1.23;;
38182;SDS011;23991;52.430;10.586;2023-12-29T04:48:33;4.30;;;1.08;;
38182;SDS011;23991;52.430;10.586;2023-12-29T04:50:59;2.35;;;1.33;;
38182;SDS011;23991;52.430;10.586;2023-12-29T04:53:24;3.42;;;1.30;;
38182;SDS011;23991;52.430;10.586;2023-12-29T04:55:50;4.60;;;1.13;;
38182;SDS011;23991;52.430;10.586;2023-12-29T04:58:16;1.45;;;0.80;;
38182;SDS011;23991;52.430;10.586;2023-12-29T05:00:44;1.58;;;0.98;;
38182;SDS011;23991;52.430;10.586;2023-12-29T05:03:13;4.20;;;1.42;;
38182;SDS011;23991;52.430;10.586;2023-12-29T05:05:39;2.83;;;1.10;;
38182;SDS011;23991;52.430;10.586;2023-12-29T05:08:04;1.63;;;1.08;;
38182;SDS011;23991;52.430;10.586;2023-12-29T05:10:30;3.22;;;1.20;;
38182;SDS011;23991;52.430;10.586;2023-12-29T05:12:56;4.57;;;1.33;;
38182;SDS011;23991;52.430;10.586;2023-12-29T05:15:21;2.10;;;1.10;;
38182;SDS011;23991;52.430;10.586;2023-12-29T05:17:47;2.72;;;1.10;;
38182;SDS011;23991;52.430;10.586;2023-12-29T05:20:12;3.75;;;1.15;;
38182;SDS011;23991;52.430;10.586;2023-12-29T05:22:38;5.05;;;1.50;;
38182;SDS011;23991;52.430;10.586;2023-12-29T05:25:04;3.17;;;1.23;;
38182;SDS011;23991;52.430;10.586;2023-12-29T05:27:30;2.80;;;1.20;;
38182;SDS011;23991;52.430;10.586;2023-12-29T05:29:56;2.97;;;1.30;;
38182;SDS011;23991;52.430;10.586;2023-12-29T05:32:22;2.50;;;0.98;;
38182;SDS011;23991;52.430;10.586;2023-12-29T05:34:47;4.22;;;1.40;;
38182;SDS011;23991;52.430;10.586;2023-12-29T05:37:13;3.15;;;1.35;;
38182;SDS011;23991;52.430;10.586;2023-12-29T05:39:41;1.90;;;1.17;;
38182;SDS011;23991;52.430;10.586;2023-12-29T05:42:07;2.15;;;1.15;;
38182;SDS011;23991;52.430;10.586;2023-12-29T05:44:35;2.45;;;1.10;;
38182;SDS011;23991;52.430;10.586;2023-12-29T05:47:01;3.58;;;1.20;;
38182;SDS011;23991;52.430;10.586;2023-12-29T05:49:27;2.47;;;1.30;;
38182;SDS011;23991;52.430;10.586;2023-12-29T05:51:56;4.40;;;1.20;;
38182;SDS011;23991;52.430;10.586;2023-12-29T05:54:21;7.60;;;1.20;;
38182;SDS011;23991;52.430;10.586;2023-12-29T05:56:47;3.22;;;1.30;;
38182;SDS011;23991;52.430;10.586;2023-12-29T05:59:12;10.30;;;1.63;;
38182;SDS011;23991;52.430;10.586;2023-12-29T06:01:38;4.40;;;1.65;;
38182;SDS011;23991;52.430;10.586;2023-12-29T06:04:04;5.70;;;1.30;;
38182;SDS011;23991;52.430;10.586;2023-12-29T06:06:29;2.88;;;1.30;;
38182;SDS011;23991;52.430;10.586;2023-12-29T06:08:55;3.22;;;1.40;;
38182;SDS011;23991;52.430;10.586;2023-12-29T06:11:21;4.03;;;1.20;;
38182;SDS011;23991;52.430;10.586;2023-12-29T06:13:46;4.22;;;1.38;;
38182;SDS011;23991;52.430;10.586;2023-12-29T06:16:21;3.38;;;1.40;;
38182;SDS011;23991;52.430;10.586;2023-12-29T06:18:47;4.38;;;1.60;;
38182;SDS011;23991;52.430;10.586;2023-12-29T06:21:13;2.10;;;1.20;;
38182;SDS011;23991;52.430;10.586;2023-12-29T06:23:38;3.20;;;1.60;;
38182;SDS011;23991;52.430;10.586;2023-12-29T06:26:04;2.85;;;1.40;;
38182;SDS011;23991;52.430;10.586;2023-12-29T06:28:30;5.32;;;1.63;;
38182;SDS011;23991;52.430;10.586;2023-12-29T06:30:56;3.92;;;1.25;;
38182;SDS011;23991;52.430;10.586;2023-12-29T06:33:22;3.33;;;1.30;;
38182;SDS011;23991;52.430;10.586;2023-12-29T06:35:48;3.42;;;1.67;;
38182;SDS011;23991;52.430;10.586;2023-12-29T06:38:15;2.65;;;1.27;;
38182;SDS011;23991;52.430;10.586;2023-12-29T06:40:41;4.40;;;1.30;;
38182;SDS011;23991;52.430;10.586;2023-12-29T06:43:06;2.92;;;1.45;;
38182;SDS011;23991;52.430;10.586;2023-12-29T06:45:32;4.03;;;1.50;;
38182;SDS011;23991;52.430;10.586;2023-12-29T06:47:57;4.55;;;1.52;;
38182;SDS011;23991;52.430;10.586;2023-12-29T06:50:23;3.08;;;1.70;;
38182;SDS011;23991;52.430;10.586;2023-12-29T06:52:49;4.95;;;1.40;;
38182;SDS011;23991;52.430;10.586;2023-12-29T06:55:15;5.13;;;1.77;;
38182;SDS011;23991;52.430;10.586;2023-12-29T06:57:40;3.13;;;1.60;;
38182;SDS011;23991;52.430;10.586;2023-12-29T07:00:06;3.35;;;1.55;;
38182;SDS011;23991;52.430;10.586;2023-12-29T07:02:32;4.70;;;1.42;;
38182;SDS011;23991;52.430;10.586;2023-12-29T07:04:57;4.25;;;1.42;;
38182;SDS011;23991;52.430;10.586;2023-12-29T07:07:23;4.40;;;1.50;;
38182;SDS011;23991;52.430;10.586;2023-12-29T07:09:49;6.43;;;1.80;;
38182;SDS011;23991;52.430;10.586;2023-12-29T07:12:15;4.32;;;1.50;;
38182;SDS011;23991;52.430;10.586;2023-12-29T07:14:41;6.57;;;2.13;;
38182;SDS011;23991;52.430;10.586;2023-12-29T07:17:06;6.05;;;1.75;;
38182;SDS011;23991;52.430;10.586;2023-12-29T07:19:32;5.05;;;1.70;;
38182;SDS011;23991;52.430;10.586;2023-12-29T07:22:04;3.65;;;1.70;;
38182;SDS011;23991;52.430;10.586;2023-12-29T07:24:34;3.05;;;1.40;;
38182;SDS011;23991;52.430;10.586;2023-12-29T07:27:00;5.40;;;1.75;;
38182;SDS011;23991;52.430;10.586;2023-12-29T07:29:26;3.53;;;1.60;;
38182;SDS011;23991;52.430;10.586;2023-12-29T07:31:52;3.10;;;1.30;;
38182;SDS011;23991;52.430;10.586;2023-12-29T07:34:18;3.35;;;1.38;;
38182;SDS011;23991;52.430;10.586;2023-12-29T07:36:44;2.45;;;1.40;;
38182;SDS011;23991;52.430;10.586;2023-12-29T07:39:10;4.85;;;1.50;;
38182;SDS011;23991;52.430;10.586;2023-12-29T07:41:39;4.68;;;1.60;;
38182;SDS011;23991;52.430;10.586;2023-12-29T07:44:06;7.22;;;1.90;;
38182;SDS011;23991;52.430;10.586;2023-12-29T07:46:32;4.57;;;2.60;;
38182;SDS011;23991;52.430;10.586;2023-12-29T07:48:57;8.18;;;1.83;;
38182;SDS011;23991;52.430;10.586;2023-12-29T07:51:23;8.68;;;1.90;;
38182;SDS011;23991;52.430;10.586;2023-12-29T07:53:49;5.47;;;1.70;;
38182;SDS011;23991;52.430;10.586;2023-12-29T07:56:14;6.05;;;1.70;;
38182;SDS011;23991;52.430;10.586;2023-12-29T07:58:40;5.15;;;1.45;;
38182;SDS011;23991;52.430;10.586;2023-12-29T08:01:06;8.90;;;1.73;;
38182;SDS011;23991;52.430;10.586;2023-12-29T08:03:31;5.97;;;1.48;;
38182;SDS011;23991;52.430;10.586;2023-12-29T08:05:57;11.18;;;2.08;;
38182;SDS011;23991;52.430;10.586;2023-12-29T08:08:22;8.80;;;1.73;;
38182;SDS011;23991;52.430;10.586;2023-12-29T08:10:48;6.97;;;1.92;;
38182;SDS011;23991;52.430;10.586;2023-12-29T08:13:13;6.20;;;1.75;;
38182;SDS011;23991;52.430;10.586;2023-12-29T08:15:39;9.95;;;1.92;;
38182;SDS011;23991;52.430;10.586;2023-12-29T08:18:05;8.27;;;2.45;;
38182;SDS011;23991;52.430;10.586;2023-12-29T08:20:31;4.47;;;1.70;;
38182;SDS011;23991;52.430;10.586;2023-12-29T08:22:57;7.13;;;2.00;;
38182;SDS011;23991;52.430;10.586;2023-12-29T08:25:22;11.98;;;2.50;;
38182;SDS011;23991;52.430;10.586;2023-12-29T08:27:48;10.57;;;1.88;;
38182;SDS011;23991;52.430;10.586;2023-12-29T08:30:14;5.28;;;2.00;;
38182;SDS011;23991;52.430;10.586;2023-12-29T08:32:43;5.72;;;1.83;;
38182;SDS011;23991;52.430;10.586;2023-12-29T08:35:08;9.57;;;2.20;;
38182;SDS011;23991;52.430;10.586;2023-12-29T08:37:34;10.40;;;2.00;;
38182;SDS011;23991;52.430;10.586;2023-12-29T08:40:00;10.20;;;2.25;;
38182;SDS011;23991;52.430;10.586;2023-12-29T08:42:25;7.22;;;1.85;;
38182;SDS011;23991;52.430;10.586;2023-12-29T08:44:52;9.00;;;2.10;;
38182;SDS011;23991;52.430;10.586;2023-12-29T08:47:18;4.68;;;2.22;;
38182;SDS011;23991;52.430;10.586;2023-12-29T08:49:44;9.75;;;2.20;;
38182;SDS011;23991;52.430;10.586;2023-12-29T08:52:10;5.30;;;1.75;;
38182;SDS011;23991;52.430;10.586;2023-12-29T08:54:36;10.85;;;1.80;;
38182;SDS011;23991;52.430;10.586;2023-12-29T08:57:02;8.50;;;1.90;;
38182;SDS011;23991;52.430;10.586;2023-12-29T08:59:28;11.35;;;1.95;;
38182;SDS011;23991;52.430;10.586;2023-12-29T09:01:54;12.15;;;2.00;;
38182;SDS011;23991;52.430;10.586;2023-12-29T09:04:20;4.95;;;1.90;;
38182;SDS011;23991;52.430;10.586;2023-12-29T09:06:46;11.27;;;2.03;;
38182;SDS011;23991;52.430;10.586;2023-12-29T09:09:11;11.30;;;2.17;;
38182;SDS011;23991;52.430;10.586;2023-12-29T09:11:40;9.02;;;1.85;;
38182;SDS011;23991;52.430;10.586;2023-12-29T09:14:07;8.15;;;2.15;;
38182;SDS011;23991;52.430;10.586;2023-12-29T09:16:34;15.48;;;2.22;;
38182;SDS011;23991;52.430;10.586;2023-12-29T09:19:00;11.95;;;2.13;;
38182;SDS011;23991;52.430;10.586;2023-12-29T09:21:26;9.15;;;2.63;;
38182;SDS011;23991;52.430;10.586;2023-12-29T09:23:51;7.22;;;1.90;;
38182;SDS011;23991;52.430;10.586;2023-12-29T09:26:18;7.65;;;2.28;;
38182;SDS011;23991;52.430;10.586;2023-12-29T09:28:43;9.35;;;2.40;;
38182;SDS011;23991;52.430;10.586;2023-12-29T09:31:10;10.38;;;2.22;;
38182;SDS011;23991;52.430;10.586;2023-12-29T09:33:36;6.55;;;1.83;;
38182;SDS011;23991;52.430;10.586;2023-12-29T09:36:02;7.65;;;1.88;;
38182;SDS011;23991;52.430;10.586;2023-12-29T09:38:28;5.72;;;2.10;;
38182;SDS011;23991;52.430;10.586;2023-12-29T09:40:54;6.75;;;1.80;;
38182;SDS011;23991;52.430;10.586;2023-12-29T09:43:25;9.45;;;2.13;;
38182;SDS011;23991;52.430;10.586;2023-12-29T09:45:51;5.30;;;1.98;;
38182;SDS011;23991;52.430;10.586;2023-12-29T09:48:17;6.15;;;1.85;;
38182;SDS011;23991;52.430;10.586;2023-12-29T09:50:45;6.82;;;2.42;;
38182;SDS011;23991;52.430;10.586;2023-12-29T09:53:14;4.80;;;1.60;;
38182;SDS011;23991;52.430;10.586;2023-12-29T09:55:41;8.05;;;1.83;;
38182;SDS011;23991;52.430;10.586;2023-12-29T09:58:08;8.75;;;2.10;;
38182;SDS011;23991;52.430;10.586;2023-12-29T10:00:35;10.50;;;1.90;;
38182;SDS011;23991;52.430;10.586;2023-12-29T10:03:00;7.70;;;1.30;;
38182;SDS011;23991;52.430;10.586;2023-12-29T10:05:26;6.57;;;1.60;;
38182;SDS011;23991;52.430;10.586;2023-12-29T10:07:52;6.47;;;1.70;;
38182;SDS011;23991;52.430;10.586;2023-12-29T10:10:18;14.30;;;2.20;;
38182;SDS011;23991;52.430;10.586;2023-12-29T10:12:48;9.43;;;2.00;;
38182;SDS011;23991;52.430;10.586;2023-12-29T10:20:55;7.53;;;1.58;;
38182;SDS011;23991;52.430;10.586;2023-12-29T10:23:26;7.17;;;1.67;;
38182;SDS011;23991;52.430;10.586;2023-12-29T10:26:01;9.88;;;1.83;;
38182;SDS011;23991;52.430;10.586;2023-12-29T10:28:27;5.20;;;1.60;;
38182;SDS011;23991;52.430;10.586;2023-12-29T10:30:53;8.45;;;2.20;;
38182;SDS011;23991;52.430;10.586;2023-12-29T10:33:19;5.68;;;1.40;;
38182;SDS011;23991;52.430;10.586;2023-12-29T10:35:58;5.18;;;1.77;;
38182;SDS011;23991;52.430;10.586;2023-12-29T10:38:33;5.18;;;1.25;;
38182;SDS011;23991;52.430;10.586;2023-12-29T10:43:41;7.07;;;1.58;;
38182;SDS011;23991;52.430;10.586;2023-12-29T10:46:08;3.42;;;1.08;;
38182;SDS011;23991;52.430;10.586;2023-12-29T10:48:35;4.43;;;1.30;;
38182;SDS011;23991;52.430;10.586;2023-12-29T10:51:02;7.30;;;1.98;;
38182;SDS011;23991;52.430;10.586;2023-12-29T10:53:32;5.90;;;1.20;;
38182;SDS011;23991;52.430;10.586;2023-12-29T10:55:59;5.10;;;1.48;;
38182;SDS011;23991;52.430;10.586;2023-12-29T10:58:25;5.78;;;1.27;;
38182;SDS011;23991;52.430;10.586;2023-12-29T11:00:58;4.13;;;1.10;;
38182;SDS011;23991;52.430;10.586;2023-12-29T11:03:27;5.07;;;1.30;;
38182;SDS011;23991;52.430;10.586;2023-12-29T11:05:59;4.65;;;1.27;;
38182;SDS011;23991;52.430;10.586;2023-12-29T11:08:25;4.47;;;1.30;;
38182;SDS011;23991;52.430;10.586;2023-12-29T11:10:51;3.60;;;1.30;;
38182;SDS011;23991;52.430;10.586;2023-12-29T11:13:18;7.10;;;1.38;;
38182;SDS011;23991;52.430;10.586;2023-12-29T11:15:45;2.85;;;1.10;;
38182;SDS011;23991;52.430;10.586;2023-12-29T11:18:12;4.10;;;1.30;;
38182;SDS011;23991;52.430;10.586;2023-12-29T11:20:40;4.45;;;1.38;;
38182;SDS011;23991;52.430;10.586;2023-12-29T11:23:06;4.13;;;1.52;;
38182;SDS011;23991;52.430;10.586;2023-12-29T11:25:34;1.60;;;1.10;;
38182;SDS011;23991;52.430;10.586;2023-12-29T11:28:00;3.70;;;1.38;;
38182;SDS011;23991;52.430;10.586;2023-12-29T11:30:27;5.03;;;1.30;;
38182;SDS011;23991;52.430;10.586;2023-12-29T11:33:02;3.58;;;1.45;;
38182;SDS011;23991;52.430;10.586;2023-12-29T11:44:05;3.33;;;1.20;;
38182;SDS011;23991;52.430;10.586;2023-12-29T11:49:08;2.08;;;1.00;;
38182;SDS011;23991;52.430;10.586;2023-12-29T11:54:04;2.97;;;1.23;;
38182;SDS011;23991;52.430;10.586;2023-12-29T11:56:37;2.35;;;1.05;;
38182;SDS011;23991;52.430;10.586;2023-12-29T12:01:43;5.97;;;1.45;;
38182;SDS011;23991;52.430;10.586;2023-12-29T12:06:58;2.13;;;1.08;;
38182;SDS011;23991;52.430;10.586;2023-12-29T12:09:24;3.92;;;1.25;;
38182;SDS011;23991;52.430;10.586;2023-12-29T12:11:50;2.95;;;1.17;;
38182;SDS011;23991;52.430;10.586;2023-12-29T12:17:29;1.88;;;0.82;;
38182;SDS011;23991;52.430;10.586;2023-12-29T12:20:09;1.38;;;0.80;;
38182;SDS011;23991;52.430;10.586;2023-12-29T12:22:35;1.77;;;1.00;;
38182;SDS011;23991;52.430;10.586;2023-12-29T12:25:01;2.83;;;0.98;;
38182;SDS011;23991;52.430;10.586;2023-12-29T12:27:28;3.05;;;1.10;;
38182;SDS011;23991;52.430;10.586;2023-12-29T12:29:58;3.67;;;0.90;;
38182;SDS011;23991;52.430;10.586;2023-12-29T12:34:51;2.38;;;1.00;;
38182;SDS011;23991;52.430;10.586;2023-12-29T12:37:26;3.20;;;1.10;;
38182;SDS011;23991;52.430;10.586;2023-12-29T12:39:53;1.13;;;0.82;;
38182;SDS011;23991;52.430;10.586;2023-12-29T12:42:19;1.88;;;0.90;;
38182;SDS011;23991;52.430;10.586;2023-12-29T12:47:35;1.27;;;0.77;;
38182;SDS011;23991;52.430;10.586;2023-12-29T12:50:04;1.77;;;0.70;;
38182;SDS011;23991;52.430;10.586;2023-12-29T12:52:31;1.45;;;0.85;;
38182;SDS011;23991;52.430;10.586;2023-12-29T12:54:57;1.75;;;0.90;;
38182;SDS011;23991;52.430;10.586;2023-12-29T12:57:23;1.70;;;1.20;;
38182;SDS011;23991;52.430;10.586;2023-12-29T12:59:49;2.03;;;1.20;;
38182;SDS011;23991;52.430;10.586;2023-12-29T13:02:16;3.65;;;1.92;;
38182;SDS011;23991;52.430;10.586;2023-12-29T13:04:42;2.15;;;1.38;;
38182;SDS011;23991;52.430;10.586;2023-12-29T13:07:09;1.75;;;1.08;;
38182;SDS011;23991;52.430;10.586;2023-12-29T13:09:36;2.05;;;1.10;;
38182;SDS011;23991;52.430;10.586;2023-12-29T13:12:08;2.67;;;1.63;;
38182;SDS011;23991;52.430;10.586;2023-12-29T13:14:35;1.73;;;1.10;;
38182;SDS011;23991;52.430;10.586;2023-12-29T13:17:05;2.80;;;1.42;;
38182;SDS011;23991;52.430;10.586;2023-12-29T13:19:37;3.53;;;1.20;;
38182;SDS011;23991;52.430;10.586;2023-12-29T13:22:08;2.70;;;1.45;;
38182;SDS011;23991;52.430;10.586;2023-12-29T13:24:46;1.77;;;0.90;;
38182;SDS011;23991;52.430;10.586;2023-12-29T13:27:12;3.22;;;1.15;;
38182;SDS011;23991;52.430;10.586;2023-12-29T13:29:39;1.88;;;1.10;;
38182;SDS011;23991;52.430;10.586;2023-12-29T13:32:27;1.40;;;0.80;;
38182;SDS011;23991;52.430;10.586;2023-12-29T13:35:00;6.22;;;1.15;;
38182;SDS011;23991;52.430;10.586;2023-12-29T13:37:33;1.40;;;0.93;;
38182;SDS011;23991;52.430;10.586;2023-12-29T13:40:22;2.38;;;1.00;;
38182;SDS011;23991;52.430;10.586;2023-12-29T13:42:53;1.15;;;0.80;;
38182;SDS011;23991;52.430;10.586;2023-12-29T13:45:22;1.10;;;0.70;;
38182;SDS011;23991;52.430;10.586;2023-12-29T13:47:49;1.42;;;0.90;;
38182;SDS011;23991;52.430;10.586;2023-12-29T13:50:15;2.58;;;0.75;;
38182;SDS011;23991;52.430;10.586;2023-12-29T13:52:41;1.63;;;0.80;;
38182;SDS011;23991;52.430;10.586;2023-12-29T13:55:07;1.20;;;0.65;;
38182;SDS011;23991;52.430;10.586;2023-12-29T13:57:35;1.52;;;0.77;;
38182;SDS011;23991;52.430;10.586;2023-12-29T14:03:22;1.02;;;0.68;;
38182;SDS011;23991;52.430;10.586;2023-12-29T14:05:39;0.70;;;0.70;;
38182;SDS011;23991;52.430;10.586;2023-12-29T14:08:17;1.35;;;0.80;;
38182;SDS011;23991;52.430;10.586;2023-12-29T14:10:48;0.93;;;0.80;;
38182;SDS011;23991;52.430;10.586;2023-12-29T14:13:14;2.33;;;0.88;;
38182;SDS011;23991;52.430;10.586;2023-12-29T14:15:41;3.92;;;2.15;;
38182;SDS011;23991;52.430;10.586;2023-12-29T14:20:37;3.08;;;1.23;;
38182;SDS011;23991;52.430;10.586;2023-12-29T14:23:04;3.83;;;2.08;;
38182;SDS011;23991;52.430;10.586;2023-12-29T14:25:36;3.55;;;1.27;;
38182;SDS011;23991;52.430;10.586;2023-12-29T14:28:23;2.22;;;0.93;;
38182;SDS011;23991;52.430;10.586;2023-12-29T14:30:48;1.20;;;0.95;;
38182;SDS011;23991;52.430;10.586;2023-12-29T14:33:14;1.30;;;0.90;;
38182;SDS011;23991;52.430;10.586;2023-12-29T14:35:40;1.73;;;0.98;;
38182;SDS011;23991;52.430;10.586;2023-12-29T14:38:06;1.67;;;0.98;;
38182;SDS011;23991;52.430;10.586;2023-12-29T14:40:32;1.58;;;1.10;;
38182;SDS011;23991;52.430;10.586;2023-12-29T14:43:00;2.75;;;1.23;;
38182;SDS011;23991;52.430;10.586;2023-12-29T14:45:27;1.60;;;0.88;;
38182;SDS011;23991;52.430;10.586;2023-12-29T14:47:58;1.70;;;1.10;;
38182;SDS011;23991;52.430;10.586;2023-12-29T14:52:51;2.20;;;1.10;;
38182;SDS011;23991;52.430;10.586;2023-12-29T14:55:16;1.25;;;1.00;;
38182;SDS011;23991;52.430;10.586;2023-12-29T14:57:42;1.67;;;1.33;;
38182;SDS011;23991;52.430;10.586;2023-12-29T15:00:10;1.15;;;0.88;;
38182;SDS011;23991;52.430;10.586;2023-12-29T15:02:36;1.77;;;0.90;;
38182;SDS011;23991;52.430;10.586;2023-12-29T15:05:01;1.95;;;0.90;;
38182;SDS011;23991;52.430;10.586;2023-12-29T15:07:27;3.03;;;1.10;;
38182;SDS011;23991;52.430;10.586;2023-12-29T15:09:55;1.75;;;1.10;;
38182;SDS011;23991;52.430;10.586;2023-12-29T15:12:22;2.58;;;1.20;;
38182;SDS011;23991;52.430;10.586;2023-12-29T15:14:48;1.58;;;1.08;;
38182;SDS011;23991;52.430;10.586;2023-12-29T15:17:14;1.83;;;1.02;;
38182;SDS011;23991;52.430;10.586;2023-12-29T15:19:39;2.72;;;1.00;;
38182;SDS011;23991;52.430;10.586;2023-12-29T15:22:05;1.83;;;1.48;;